createdAt,value
2022-12-20T00:09:57.731Z,98342.75
2022-12-20T00:19:59.407Z,98331.94
2022-12-20T00:30:00.907Z,98342.09
2022-12-20T00:40:04.938Z,98319.31
2022-12-20T00:50:11.644Z,98312.06
2022-12-20T01:00:13.603Z,98341.91
2022-12-20T01:10:15.706Z,98324.66
2022-12-20T01:20:17.295Z,98333.31
2022-12-20T01:30:18.911Z,98296.09
2022-12-20T01:40:20.911Z,98306.41
2022-12-20T01:50:24.085Z,98298.19
2022-12-20T02:00:25.729Z,98326.66
2022-12-20T02:10:44.754Z,98333.19
2022-12-20T02:21:05.391Z,98305.94
2022-12-20T02:31:13.218Z,98304.13
2022-12-20T02:41:30.382Z,98283.78
2022-12-20T02:51:33.358Z,98269.06
2022-12-20T03:01:44.783Z,98256.59
2022-12-20T03:11:46.446Z,98247.13
2022-12-20T03:21:48.209Z,98254.56
2022-12-20T03:31:49.859Z,98248.91
2022-12-20T03:41:51.554Z,98264.41
2022-12-20T03:51:53.709Z,98231.41
2022-12-20T04:01:55.522Z,98236.34
2022-12-20T04:11:57.259Z,98216.88
2022-12-20T04:22:04.589Z,98202.19
2022-12-20T04:32:20.461Z,98228.63
2022-12-20T04:42:22.943Z,98224.34
2022-12-20T04:52:47.963Z,98205.06
2022-12-20T05:02:51.463Z,98193.84
2022-12-20T05:12:55.311Z,98180.69
2022-12-20T05:23:28.070Z,98173.84
2022-12-20T05:33:38.505Z,98152.69
2022-12-20T05:43:40.485Z,98153.16
2022-12-20T05:53:42.518Z,98177.34
2022-12-20T06:03:45.819Z,98178.50
2022-12-20T06:13:50.747Z,98180.03
2022-12-20T06:23:53.041Z,98152.41
2022-12-20T06:33:55.694Z,98133.75
2022-12-20T06:44:00.415Z,98138.38
2022-12-20T06:54:02.319Z,98151.31
2022-12-20T07:04:07.137Z,98141.53
2022-12-20T07:14:08.680Z,98150.78
2022-12-20T07:24:10.401Z,98146.09
2022-12-20T07:34:11.947Z,98155.00
2022-12-20T07:44:13.777Z,98174.94
2022-12-20T07:54:26.781Z,98170.13
2022-12-20T08:04:30.858Z,98178.81
2022-12-20T08:14:32.323Z,98153.59
2022-12-20T08:24:34.558Z,98160.03
2022-12-20T08:34:36.269Z,98129.97
2022-12-20T08:44:37.739Z,98130.41
2022-12-20T08:54:39.216Z,98114.66
2022-12-20T09:04:40.699Z,98132.34
2022-12-20T09:14:42.447Z,98114.31
2022-12-20T09:24:44.214Z,98087.59
2022-12-20T09:34:47.321Z,98067.22
2022-12-20T09:44:49.074Z,98104.41
2022-12-20T09:55:06.549Z,98112.22
2022-12-20T10:05:15.640Z,98081.97
2022-12-20T10:15:28.953Z,98039.13
2022-12-20T10:25:33.212Z,98030.47
2022-12-20T10:35:40.793Z,98019.63
2022-12-20T10:45:43.577Z,98015.81
2022-12-20T10:55:45.196Z,97998.88
2022-12-20T11:06:04.477Z,97984.03
2022-12-20T11:16:06.415Z,97959.84
2022-12-20T11:26:40.563Z,97946.81
2022-12-20T11:37:03.996Z,97922.00
2022-12-20T11:47:23.726Z,97918.56
2022-12-20T11:57:48.355Z,97918.81
2022-12-20T12:08:04.200Z,97904.66
2022-12-20T12:18:17.768Z,97879.53
2022-12-20T12:28:22.539Z,97890.47
2022-12-20T12:38:33.208Z,97876.72
2022-12-20T12:48:59.786Z,97871.78
2022-12-20T12:59:07.356Z,97859.34
2022-12-20T13:09:11.474Z,97866.75
2022-12-20T13:19:35.928Z,97855.84
2022-12-20T13:29:52.871Z,97840.66
2022-12-20T13:39:55.576Z,97821.44
2022-12-20T13:50:01.826Z,97832.94
2022-12-20T14:00:07.623Z,97840.47
2022-12-20T14:10:20.776Z,97839.81
2022-12-20T14:20:35.106Z,97817.66
2022-12-20T14:30:44.339Z,97786.53
2022-12-20T14:40:53.623Z,97774.84
2022-12-20T14:50:55.577Z,97802.16
2022-12-20T15:01:14.853Z,97818.72
2022-12-20T15:11:22.853Z,97799.66
2022-12-20T15:21:32.976Z,97768.53
2022-12-20T15:31:36.070Z,97770.63
2022-12-20T15:41:39.936Z,97764.81
2022-12-20T15:51:44.264Z,97767.19
2022-12-20T16:01:46.027Z,97782.22
2022-12-20T16:11:47.945Z,97784.63
2022-12-20T16:21:52.298Z,97789.06
2022-12-20T16:31:53.882Z,97773.75
2022-12-20T16:41:55.385Z,97769.13
2022-12-20T16:51:56.921Z,97743.69
2022-12-20T17:01:58.571Z,97729.00
2022-12-20T17:12:00.253Z,97730.13
2022-12-20T17:32:25.642Z,97747.22
2022-12-20T17:42:31.546Z,97757.34
2022-12-20T17:52:33.335Z,97768.84
2022-12-20T18:02:34.931Z,97736.00
2022-12-20T18:12:37.734Z,97737.03
2022-12-20T18:22:39.427Z,97740.22
2022-12-20T18:32:41.230Z,97731.97
2022-12-20T18:42:42.690Z,97745.59
2022-12-20T18:52:46.072Z,97729.91
2022-12-20T19:02:49.055Z,97719.06
2022-12-20T19:12:50.656Z,97712.56
2022-12-20T19:22:55.269Z,97679.50
2022-12-20T19:32:56.752Z,97665.75
2022-12-20T19:42:58.275Z,97650.34
2022-12-20T19:52:59.848Z,97637.72
2022-12-20T20:03:01.452Z,97641.13
2022-12-20T20:13:04.026Z,97645.53
2022-12-20T20:23:05.464Z,97640.50
2022-12-20T20:33:08.333Z,97650.16
2022-12-20T20:43:09.804Z,97629.84
2022-12-20T20:53:12.025Z,97622.06
2022-12-20T21:03:13.527Z,97602.78
2022-12-20T21:13:15.694Z,97615.00
2022-12-20T21:23:17.096Z,97615.63
2022-12-20T21:33:18.544Z,97633.69
2022-12-20T21:43:19.976Z,97624.59
2022-12-20T21:53:21.433Z,97632.31
2022-12-20T22:03:24.721Z,97651.13
2022-12-20T22:13:27.116Z,97655.34
2022-12-20T22:23:28.574Z,97651.56
2022-12-20T22:33:29.986Z,97631.88
2022-12-20T22:43:31.699Z,97656.31
2022-12-20T22:53:34.048Z,97661.78
2022-12-20T23:03:37.147Z,97661.28
2022-12-20T23:13:58.359Z,97648.22
2022-12-20T23:23:59.789Z,97615.00
2022-12-20T23:34:01.991Z,97610.19
2022-12-20T23:44:04.928Z,97581.72
2022-12-20T23:54:06.359Z,97594.44
